Lothian, Maryland
Current Conditions -  °F | °C
As of 7:54 PM on Tuesday 21 Oct 2014 (Local Time) from KNAK Reporting Station
Light Rain Light Rain  
Wind Chill: 60°   Ceiling: 5000
Heat Index: 60°   Visibility: 10mi
Dew Point: 52°   Wind: 7mph
Humidity: 75%   Direction: 280°W
Pressure: 29.86"   Gusts: NA
Location:  38.83°N, 76.61°W
Report Text: KNAK 212354Z AUTO 28006KT 10SM -RA OVC050 16/11 A2986 RMK AO2 RAB54 SLP113 P0000 60000 T01560111 10189 20156 53018
Loading
Personal Weather Stations






























Interactive Weather Map
Tropical Storm Tracking
New forecast layout! Learn more

10-Day Weather Forecast

Advertisements
Track Severe Weather on mobile